createdAt,value
2023-09-06T00:01:07.674Z,97442.66
2023-09-06T00:03:37.408Z,97438.09
2023-09-06T00:06:06.724Z,97437.22
2023-09-06T00:08:35.541Z,97441.72
2023-09-06T00:11:05.519Z,97445.78
2023-09-06T00:13:34.357Z,97440.06
2023-09-06T00:16:02.084Z,97442.50
2023-09-06T00:18:29.989Z,97440.66
2023-09-06T00:20:58.927Z,97445.72
2023-09-06T00:23:27.948Z,97445.28
2023-09-06T00:25:55.752Z,97444.66
2023-09-06T00:28:25.407Z,97443.34
2023-09-06T00:30:53.193Z,97451.97
2023-09-06T00:33:22.407Z,97451.50
2023-09-06T00:35:50.093Z,97466.56
2023-09-06T00:38:17.658Z,97469.78
2023-09-06T00:40:52.745Z,97467.91
2023-09-06T00:43:20.452Z,97470.84
2023-09-06T00:45:49.557Z,97471.63
2023-09-06T00:48:22.672Z,97461.75
2023-09-06T00:50:52.446Z,97458.91
2023-09-06T00:53:21.144Z,97464.78
2023-09-06T00:55:50.722Z,97459.84
2023-09-06T00:58:19.689Z,97455.84
2023-09-06T01:00:48.225Z,97460.06
2023-09-06T01:03:16.878Z,97460.44
2023-09-06T01:06:07.074Z,97462.44
2023-09-06T01:08:38.219Z,97462.66
2023-09-06T01:11:23.474Z,97461.16
2023-09-06T01:13:52.988Z,97453.75
2023-09-06T01:16:24.561Z,97455.75
2023-09-06T01:18:52.276Z,97456.59
2023-09-06T01:21:21.619Z,97458.06
2023-09-06T01:23:52.133Z,97451.44
2023-09-06T01:26:20.304Z,97451.75
2023-09-06T01:28:50.553Z,97447.16
2023-09-06T01:31:18.710Z,97445.50
2023-09-06T01:33:46.659Z,97448.38
2023-09-06T01:36:14.331Z,97444.69
2023-09-06T01:38:43.022Z,97432.16
2023-09-06T01:41:13.346Z,97447.53
2023-09-06T01:43:41.574Z,97440.56
2023-09-06T01:46:09.282Z,97433.63
2023-09-06T01:48:37.686Z,97436.09
2023-09-06T01:51:05.775Z,97439.75
2023-09-06T01:53:33.352Z,97428.50
2023-09-06T01:56:01.441Z,97431.72
2023-09-06T01:58:33.714Z,97429.88
2023-09-06T02:01:01.934Z,97429.06
2023-09-06T02:03:29.898Z,97428.41
2023-09-06T02:05:57.527Z,97434.38
2023-09-06T02:08:26.880Z,97411.22
2023-09-06T02:10:54.749Z,97422.94
2023-09-06T02:13:22.369Z,97418.44
2023-09-06T02:15:51.428Z,97418.63
2023-09-06T02:18:19.691Z,97422.47
2023-09-06T02:20:49.784Z,97411.38
2023-09-06T02:23:17.498Z,97419.00
2023-09-06T02:25:46.309Z,97421.84
2023-09-06T02:28:15.650Z,97428.63
2023-09-06T02:30:43.299Z,97422.47
2023-09-06T02:33:13.646Z,97421.66
2023-09-06T02:35:41.937Z,97424.66
2023-09-06T02:38:10.216Z,97424.59
2023-09-06T02:40:37.971Z,97419.03
2023-09-06T02:43:06.161Z,97431.94
2023-09-06T02:45:38.856Z,97434.84
2023-09-06T02:48:08.527Z,97431.56
2023-09-06T02:50:37.543Z,97432.31
2023-09-06T02:53:05.800Z,97437.69
2023-09-06T02:55:36.403Z,97435.22
2023-09-06T02:58:06.148Z,97434.59
2023-09-06T03:00:37.262Z,97433.31
2023-09-06T03:03:07.427Z,97440.50
2023-09-06T03:05:42.645Z,97431.28
2023-09-06T03:08:10.858Z,97434.28
2023-09-06T03:10:38.881Z,97434.00
2023-09-06T03:13:06.815Z,97435.19
2023-09-06T03:15:35.537Z,97443.13
2023-09-06T03:18:06.040Z,97439.47
2023-09-06T03:20:34.178Z,97441.78
2023-09-06T03:23:10.311Z,97453.38
2023-09-06T03:25:41.401Z,97458.25
2023-09-06T03:28:09.673Z,97453.47
2023-09-06T03:30:37.319Z,97450.19
2023-09-06T03:33:06.397Z,97452.81
2023-09-06T03:35:33.998Z,97457.38
2023-09-06T03:38:03.221Z,97459.22
2023-09-06T03:40:37.052Z,97451.63
2023-09-06T03:43:15.811Z,97453.44
2023-09-06T03:45:45.238Z,97453.78
2023-09-06T03:48:14.120Z,97450.84
2023-09-06T03:50:42.533Z,97459.97
2023-09-06T03:53:14.693Z,97462.63
2023-09-06T03:55:43.551Z,97460.34
2023-09-06T03:58:12.250Z,97461.16
2023-09-06T04:00:43.933Z,97455.41
2023-09-06T04:03:13.727Z,97461.69
2023-09-06T04:05:43.168Z,97461.06
2023-09-06T04:08:12.295Z,97461.69
2023-09-06T04:10:41.509Z,97460.03
2023-09-06T04:13:10.203Z,97458.25
2023-09-06T04:15:38.644Z,97461.56
2023-09-06T04:18:07.522Z,97461.13
2023-09-06T04:20:37.277Z,97460.81
2023-09-06T04:23:06.639Z,97469.28
2023-09-06T04:25:42.628Z,97470.28
2023-09-06T04:28:10.859Z,97466.47
2023-09-06T04:30:39.515Z,97470.81
2023-09-06T04:33:09.208Z,97471.50
2023-09-06T04:35:40.035Z,97471.50
2023-09-06T04:38:10.896Z,97477.59
2023-09-06T04:40:40.014Z,97480.91
2023-09-06T04:43:08.695Z,97479.28
2023-09-06T04:45:38.731Z,97477.78
2023-09-06T04:48:07.128Z,97479.28
2023-09-06T04:50:34.959Z,97468.84
2023-09-06T04:53:02.588Z,97480.09
2023-09-06T04:55:34.944Z,97472.78
2023-09-06T04:58:04.499Z,97478.28
2023-09-06T05:00:34.392Z,97470.84
2023-09-06T05:03:02.664Z,97479.09
2023-09-06T05:05:31.382Z,97476.28
2023-09-06T05:07:59.202Z,97479.25
2023-09-06T05:10:26.746Z,97476.38
2023-09-06T05:12:54.318Z,97470.53
2023-09-06T05:15:23.306Z,97473.28
2023-09-06T05:17:50.923Z,97480.38
2023-09-06T05:20:25.657Z,97475.72
2023-09-06T05:22:53.364Z,97468.22
2023-09-06T05:25:20.964Z,97478.22
2023-09-06T05:27:48.609Z,97477.81
2023-09-06T05:30:16.485Z,97482.38
2023-09-06T05:32:45.426Z,97475.63
2023-09-06T05:35:13.223Z,97478.66
2023-09-06T05:37:41.169Z,97466.16
2023-09-06T05:40:09.866Z,97467.22
2023-09-06T05:42:38.230Z,97465.53
2023-09-06T05:45:06.918Z,97465.84
2023-09-06T05:47:37.208Z,97468.44
2023-09-06T05:50:07.764Z,97467.97
2023-09-06T05:52:35.597Z,97459.50
2023-09-06T05:55:03.347Z,97460.69
2023-09-06T05:57:32.172Z,97461.28
2023-09-06T05:59:59.873Z,97460.81
2023-09-06T06:02:27.669Z,97464.59
2023-09-06T06:04:56.353Z,97452.84
2023-09-06T06:07:24.491Z,97460.31
2023-09-06T06:09:52.073Z,97449.09
2023-09-06T06:12:23.740Z,97452.28
2023-09-06T06:14:52.923Z,97449.88
2023-09-06T06:17:20.707Z,97451.13
2023-09-06T06:19:50.196Z,97449.94
2023-09-06T06:22:17.871Z,97462.84
2023-09-06T06:24:48.735Z,97455.97
2023-09-06T06:27:16.509Z,97461.41
2023-09-06T06:29:44.151Z,97456.41
2023-09-06T06:32:11.898Z,97466.53
2023-09-06T06:34:40.487Z,97466.97
2023-09-06T06:37:08.388Z,97468.50
2023-09-06T06:39:36.085Z,97469.78
2023-09-06T06:42:05.325Z,97462.88
2023-09-06T06:44:32.865Z,97460.84
2023-09-06T06:47:02.452Z,97467.84
2023-09-06T06:49:30.036Z,97466.69
2023-09-06T06:51:57.640Z,97472.66
2023-09-06T06:54:26.124Z,97472.25
2023-09-06T06:56:53.757Z,97474.69
2023-09-06T06:59:22.704Z,97474.06
2023-09-06T07:01:50.416Z,97477.31
2023-09-06T07:04:18.072Z,97475.47
2023-09-06T07:06:45.736Z,97476.47
2023-09-06T07:09:13.304Z,97474.81
2023-09-06T07:11:40.937Z,97477.66
2023-09-06T07:14:08.566Z,97487.53
2023-09-06T07:16:37.698Z,97482.09
2023-09-06T07:19:06.340Z,97486.59
2023-09-06T07:21:33.970Z,97481.19
2023-09-06T07:24:01.559Z,97476.66
2023-09-06T07:26:29.172Z,97477.75
2023-09-06T07:28:56.800Z,97480.75
2023-09-06T07:31:24.470Z,97480.63
2023-09-06T07:33:53.589Z,97478.97
2023-09-06T07:36:21.378Z,97474.75
2023-09-06T07:38:49.566Z,97480.81
2023-09-06T07:41:18.426Z,97479.28
2023-09-06T07:43:46.103Z,97478.97
2023-09-06T07:46:13.808Z,97477.94
2023-09-06T07:48:41.479Z,97487.91
2023-09-06T07:51:13.280Z,97479.63
2023-09-06T07:53:42.930Z,97479.72
2023-09-06T07:56:10.694Z,97475.44
2023-09-06T07:58:38.745Z,97469.22
2023-09-06T08:01:18.060Z,97479.50
2023-09-06T08:03:47.453Z,97481.41
2023-09-06T08:06:17.547Z,97489.50
2023-09-06T08:08:46.028Z,97481.91
2023-09-06T08:11:13.899Z,97476.47
2023-09-06T08:13:42.730Z,97480.00
2023-09-06T08:16:13.361Z,97489.13
2023-09-06T08:18:41.928Z,97482.72
2023-09-06T08:21:09.839Z,97485.19
2023-09-06T08:23:38.826Z,97487.03
2023-09-06T08:26:06.370Z,97493.00
2023-09-06T08:28:34.747Z,97490.06
2023-09-06T08:31:03.171Z,97490.69
2023-09-06T08:33:31.265Z,97494.25
2023-09-06T08:35:59.652Z,97495.41
2023-09-06T08:38:27.729Z,97499.03
2023-09-06T08:40:56.660Z,97501.50
2023-09-06T08:43:25.742Z,97498.81
2023-09-06T08:45:53.425Z,97501.63
2023-09-06T08:48:21.723Z,97497.06
2023-09-06T08:50:49.943Z,97497.66
2023-09-06T08:53:19.414Z,97495.91
2023-09-06T08:55:47.636Z,97497.28
2023-09-06T08:58:17.019Z,97504.28
2023-09-06T09:00:44.798Z,97511.78
2023-09-06T09:03:13.790Z,97505.47
2023-09-06T09:05:41.520Z,97511.63
2023-09-06T09:08:10.990Z,97514.94
2023-09-06T09:10:38.739Z,97514.91
2023-09-06T09:13:06.363Z,97513.19
2023-09-06T09:15:35.803Z,97513.56
2023-09-06T09:18:11.866Z,97508.81
2023-09-06T09:20:41.339Z,97508.28
2023-09-06T09:23:13.275Z,97510.38
2023-09-06T09:25:48.047Z,97502.59
2023-09-06T09:28:16.235Z,97501.25
2023-09-06T09:30:47.318Z,97499.91
2023-09-06T09:33:16.051Z,97500.41
2023-09-06T09:35:45.479Z,97501.50
2023-09-06T09:38:13.059Z,97503.78
2023-09-06T09:43:11.663Z,97506.00
2023-09-06T09:45:44.448Z,97504.38
2023-09-06T09:48:13.696Z,97508.06
2023-09-06T09:50:42.683Z,97500.38
2023-09-06T09:55:48.130Z,97494.31
2023-09-06T09:58:15.822Z,97500.34
2023-09-06T10:00:43.663Z,97489.97
2023-09-06T10:03:14.581Z,97492.56
2023-09-06T10:05:43.695Z,97495.22
2023-09-06T10:08:12.198Z,97495.00
2023-09-06T10:10:41.331Z,97504.88
2023-09-06T10:13:09.959Z,97503.56
2023-09-06T10:15:38.677Z,97495.66
2023-09-06T10:18:08.570Z,97494.66
2023-09-06T10:20:38.474Z,97496.53
2023-09-06T10:23:09.012Z,97488.25
2023-09-06T10:25:40.872Z,97499.63
2023-09-06T10:28:09.584Z,97485.13
2023-09-06T10:30:45.049Z,97486.25
2023-09-06T10:33:13.406Z,97491.06
2023-09-06T10:35:44.642Z,97491.06
2023-09-06T10:38:15.934Z,97481.78
2023-09-06T10:41:07.965Z,97482.84
2023-09-06T10:43:57.132Z,97476.16
2023-09-06T10:46:29.895Z,97469.31
2023-09-06T10:49:20.601Z,97467.00
2023-09-06T10:52:09.659Z,97462.94
2023-09-06T10:54:41.463Z,97469.28
2023-09-06T10:57:11.587Z,97473.44
2023-09-06T10:59:40.390Z,97471.91
2023-09-06T11:02:12.941Z,97469.22
2023-09-06T11:04:41.073Z,97467.63
2023-09-06T11:07:12.089Z,97466.88
2023-09-06T11:09:44.406Z,97462.88
2023-09-06T11:12:13.869Z,97462.66
2023-09-06T11:14:41.696Z,97456.22
2023-09-06T11:17:09.595Z,97464.91
2023-09-06T11:19:37.753Z,97451.28
2023-09-06T11:22:07.352Z,97451.97
2023-09-06T11:24:37.000Z,97450.19
2023-09-06T11:27:18.623Z,97453.22
2023-09-06T11:29:46.211Z,97451.59
2023-09-06T11:32:14.862Z,97444.31
2023-09-06T11:34:46.067Z,97436.19
2023-09-06T11:37:16.658Z,97445.34
2023-09-06T11:39:46.543Z,97437.50
2023-09-06T11:42:16.852Z,97424.03
2023-09-06T11:44:49.056Z,97431.34
2023-09-06T11:47:18.039Z,97434.09
2023-09-06T11:49:46.999Z,97425.47
2023-09-06T11:52:17.263Z,97425.25
2023-09-06T11:54:48.578Z,97426.22
2023-09-06T11:57:24.999Z,97421.94
2023-09-06T11:59:58.592Z,97416.53
2023-09-06T12:02:28.369Z,97421.44
2023-09-06T12:05:01.845Z,97417.06
2023-09-06T12:07:29.609Z,97417.09
2023-09-06T12:10:00.697Z,97416.28
2023-09-06T12:12:28.335Z,97403.03
2023-09-06T12:14:56.015Z,97406.28
2023-09-06T12:17:26.420Z,97408.47
2023-09-06T12:20:00.312Z,97399.22
2023-09-06T12:22:27.962Z,97406.53
2023-09-06T12:24:56.351Z,97400.78
2023-09-06T12:27:26.443Z,97398.28
2023-09-06T12:29:54.756Z,97391.03
2023-09-06T12:32:24.492Z,97391.41
2023-09-06T12:34:53.546Z,97385.53
2023-09-06T12:37:22.027Z,97396.13
2023-09-06T12:39:49.742Z,97388.38
2023-09-06T12:42:17.527Z,97386.19
2023-09-06T12:44:46.423Z,97383.69
2023-09-06T12:47:17.596Z,97391.41
2023-09-06T12:49:45.217Z,97379.72
2023-09-06T12:52:14.947Z,97379.78
2023-09-06T12:54:42.490Z,97384.78
2023-09-06T12:57:10.121Z,97384.53
2023-09-06T12:59:37.723Z,97390.13
2023-09-06T13:02:07.324Z,97385.84
2023-09-06T13:04:35.076Z,97376.09
2023-09-06T13:07:02.976Z,97370.63
2023-09-06T13:09:30.582Z,97365.50
2023-09-06T13:11:58.877Z,97358.81
2023-09-06T13:14:26.520Z,97366.59
2023-09-06T13:16:54.330Z,97365.50
2023-09-06T13:19:23.501Z,97364.44
2023-09-06T13:21:51.225Z,97355.59
2023-09-06T13:24:18.949Z,97357.66
2023-09-06T13:26:48.190Z,97354.34
2023-09-06T13:29:15.963Z,97359.59
2023-09-06T13:31:43.633Z,97358.34
2023-09-06T13:34:11.403Z,97355.78
2023-09-06T13:36:40.295Z,97355.00
2023-09-06T13:39:08.627Z,97347.81
2023-09-06T13:41:36.914Z,97349.00
2023-09-06T13:44:05.162Z,97341.63
2023-09-06T13:46:34.049Z,97348.22
2023-09-06T13:49:01.956Z,97340.16
2023-09-06T13:51:29.858Z,97336.00
2023-09-06T13:53:58.940Z,97336.72
2023-09-06T13:56:26.511Z,97336.00
2023-09-06T13:58:54.060Z,97335.38
2023-09-06T14:01:21.701Z,97320.09
2023-09-06T14:03:49.518Z,97324.56
2023-09-06T14:06:17.105Z,97319.84
2023-09-06T14:08:44.759Z,97319.75
2023-09-06T14:11:14.075Z,97318.19
2023-09-06T14:13:41.734Z,97311.78
2023-09-06T14:16:10.259Z,97322.66
2023-09-06T14:18:37.934Z,97319.97
2023-09-06T14:21:05.498Z,97312.66
2023-09-06T14:23:33.114Z,97307.78
2023-09-06T14:26:00.830Z,97309.34
2023-09-06T14:28:30.088Z,97304.44
2023-09-06T14:30:58.551Z,97312.47
2023-09-06T14:33:26.237Z,97316.16
2023-09-06T14:35:54.104Z,97304.28
2023-09-06T14:38:22.869Z,97296.31
2023-09-06T14:40:50.775Z,97301.00
2023-09-06T14:43:20.054Z,97306.97
2023-09-06T14:45:49.054Z,97308.38
2023-09-06T14:48:16.803Z,97311.56
2023-09-06T14:50:44.482Z,97310.38
2023-09-06T14:53:12.318Z,97309.09
2023-09-06T14:55:39.931Z,97310.38
2023-09-06T14:58:07.496Z,97303.41
2023-09-06T15:00:35.189Z,97306.28
2023-09-06T15:03:04.799Z,97308.16
2023-09-06T15:05:32.923Z,97305.50
2023-09-06T15:08:01.706Z,97296.47
2023-09-06T15:10:33.109Z,97305.09
2023-09-06T15:13:01.229Z,97298.00
2023-09-06T15:15:28.838Z,97302.13
2023-09-06T15:17:59.421Z,97297.81
2023-09-06T15:20:30.191Z,97294.25
2023-09-06T15:22:57.972Z,97304.75
2023-09-06T15:25:26.863Z,97308.59
2023-09-06T15:27:54.870Z,97300.63
2023-09-06T15:30:23.534Z,97300.72
2023-09-06T15:32:51.303Z,97297.06
2023-09-06T15:35:18.915Z,97293.94
2023-09-06T15:38:01.353Z,97300.91
2023-09-06T15:40:28.973Z,97300.66
2023-09-06T15:42:56.541Z,97296.94
2023-09-06T15:45:24.176Z,97298.63
2023-09-06T15:47:51.902Z,97288.88
2023-09-06T15:50:21.029Z,97294.66
2023-09-06T15:52:49.583Z,97290.09
2023-09-06T15:55:18.540Z,97296.94
2023-09-06T15:57:46.998Z,97288.81
2023-09-06T16:00:30.931Z,97291.00
2023-09-06T16:03:00.546Z,97292.97
2023-09-06T16:05:28.564Z,97294.03
2023-09-06T16:07:56.870Z,97301.13
2023-09-06T16:10:26.183Z,97297.63
2023-09-06T16:12:53.862Z,97292.78
2023-09-06T16:15:23.693Z,97287.06
2023-09-06T16:17:51.623Z,97290.88
2023-09-06T16:20:19.559Z,97290.09
2023-09-06T16:22:48.147Z,97289.53
2023-09-06T16:25:15.732Z,97287.66
2023-09-06T16:27:46.830Z,97291.19
2023-09-06T16:30:14.947Z,97281.44
2023-09-06T16:32:42.961Z,97290.09
2023-09-06T16:35:10.724Z,97290.38
2023-09-06T16:37:40.596Z,97286.56
2023-09-06T16:40:11.986Z,97291.75
2023-09-06T16:42:40.911Z,97289.00
2023-09-06T16:45:11.090Z,97289.25
2023-09-06T16:47:38.663Z,97297.34
2023-09-06T16:50:07.557Z,97301.13
2023-09-06T16:52:36.867Z,97299.19
2023-09-06T16:55:04.894Z,97295.16
2023-09-06T16:57:32.509Z,97295.63
2023-09-06T17:00:00.060Z,97298.56
2023-09-06T17:02:29.099Z,97296.13
2023-09-06T17:04:56.713Z,97293.31
2023-09-06T17:07:24.277Z,97304.91
2023-09-06T17:09:51.929Z,97300.78
2023-09-06T17:12:21.272Z,97301.00
2023-09-06T17:14:48.907Z,97297.97
2023-09-06T17:17:17.945Z,97304.09
2023-09-06T17:19:46.902Z,97292.41
2023-09-06T17:22:14.500Z,97296.06
2023-09-06T17:24:42.560Z,97299.25
2023-09-06T17:27:10.147Z,97301.88
2023-09-06T17:29:41.029Z,97299.09
2023-09-06T17:32:08.813Z,97294.13
2023-09-06T17:34:36.502Z,97297.81
2023-09-06T17:37:07.126Z,97298.75
2023-09-06T17:39:34.801Z,97298.63
2023-09-06T17:42:02.911Z,97304.38
2023-09-06T17:44:32.650Z,97305.94
2023-09-06T17:47:02.753Z,97303.44
2023-09-06T17:49:30.771Z,97311.47
2023-09-06T17:51:59.516Z,97310.53
2023-09-06T17:54:30.131Z,97316.91
2023-09-06T17:57:00.518Z,97321.16
2023-09-06T17:59:29.057Z,97318.91
2023-09-06T18:01:57.453Z,97320.66
2023-09-06T18:04:25.832Z,97318.13
2023-09-06T18:06:54.812Z,97315.44
2023-09-06T18:09:24.234Z,97325.22
2023-09-06T18:11:54.050Z,97320.50
2023-09-06T18:14:22.141Z,97318.81
2023-09-06T18:16:49.805Z,97321.38
2023-09-06T18:19:17.790Z,97316.69
2023-09-06T18:21:45.391Z,97316.91
2023-09-06T18:24:15.509Z,97322.22
2023-09-06T18:26:54.213Z,97318.06
2023-09-06T18:29:33.139Z,97323.84
2023-09-06T18:32:00.854Z,97317.25
2023-09-06T18:34:28.521Z,97319.75
2023-09-06T18:36:56.265Z,97321.69
2023-09-06T18:39:23.861Z,97323.31
2023-09-06T18:41:52.313Z,97327.03
2023-09-06T18:44:19.873Z,97330.09
2023-09-06T18:46:48.801Z,97322.09
2023-09-06T18:49:15.457Z,97316.03
2023-09-06T18:51:42.982Z,97328.53
2023-09-06T18:54:10.550Z,97323.75
2023-09-06T18:56:38.375Z,97336.88
2023-09-06T18:59:06.392Z,97336.78
2023-09-06T19:01:34.104Z,97338.66
2023-09-06T19:04:03.068Z,97341.13
2023-09-06T19:06:35.355Z,97343.53
2023-09-06T19:09:09.180Z,97338.06
2023-09-06T19:11:37.604Z,97348.09
2023-09-06T19:14:05.623Z,97353.00
2023-09-06T19:16:34.016Z,97356.94
2023-09-06T19:19:03.029Z,97347.91
2023-09-06T19:21:30.703Z,97346.47
2023-09-06T19:23:58.320Z,97346.34
2023-09-06T19:26:26.010Z,97351.19
2023-09-06T19:28:53.645Z,97340.44
2023-09-06T19:31:21.400Z,97348.91
2023-09-06T19:33:49.021Z,97346.31
2023-09-06T19:36:18.499Z,97347.13
2023-09-06T19:38:46.067Z,97347.63
2023-09-06T19:41:13.657Z,97340.63
2023-09-06T19:43:42.063Z,97338.91
2023-09-06T19:46:09.692Z,97344.19
2023-09-06T19:48:47.107Z,97342.56
2023-09-06T19:51:23.899Z,97346.03
2023-09-06T19:53:51.445Z,97342.78
2023-09-06T19:56:19.014Z,97346.44
2023-09-06T19:58:48.670Z,97348.34
2023-09-06T20:01:17.602Z,97351.50
2023-09-06T20:03:45.558Z,97354.69
2023-09-06T20:06:13.307Z,97360.25
2023-09-06T20:08:43.719Z,97361.22
2023-09-06T20:11:11.513Z,97363.34
2023-09-06T20:13:39.131Z,97357.16
2023-09-06T20:16:06.947Z,97361.16
2023-09-06T20:18:35.489Z,97357.78
2023-09-06T20:21:06.813Z,97359.66
2023-09-06T20:23:36.116Z,97359.91
2023-09-06T20:26:05.332Z,97359.06
2023-09-06T20:28:33.480Z,97356.84
2023-09-06T20:31:01.191Z,97358.75
2023-09-06T20:33:29.067Z,97357.13
2023-09-06T20:35:59.450Z,97345.91
2023-09-06T20:38:27.119Z,97353.50
2023-09-06T20:41:01.732Z,97349.78
2023-09-06T20:43:31.421Z,97357.38
2023-09-06T20:45:59.440Z,97345.81
2023-09-06T20:48:29.139Z,97346.78
2023-09-06T20:51:01.710Z,97354.72
2023-09-06T20:53:31.705Z,97348.53
2023-09-06T20:56:00.426Z,97353.09
2023-09-06T20:58:28.387Z,97358.78
2023-09-06T21:00:57.845Z,97356.34
2023-09-06T21:03:26.831Z,97362.75
2023-09-06T21:05:57.500Z,97357.38
2023-09-06T21:08:25.381Z,97354.63
2023-09-06T21:10:53.026Z,97352.22
2023-09-06T21:13:20.599Z,97350.84
2023-09-06T21:15:48.441Z,97351.75
2023-09-06T21:18:17.524Z,97354.31
2023-09-06T21:20:45.638Z,97355.16
2023-09-06T21:23:14.115Z,97357.38
2023-09-06T21:25:42.332Z,97349.91
2023-09-06T21:28:10.155Z,97352.38
2023-09-06T21:30:41.383Z,97358.06
2023-09-06T21:33:09.700Z,97348.75
2023-09-06T21:35:43.741Z,97345.94
2023-09-06T21:38:11.522Z,97365.66
2023-09-06T21:40:40.815Z,97365.53
2023-09-06T21:43:17.728Z,97356.19
2023-09-06T21:45:46.512Z,97354.19
2023-09-06T21:48:14.460Z,97359.56
2023-09-06T21:50:47.457Z,97372.00
2023-09-06T21:53:16.177Z,97364.53
2023-09-06T21:55:43.869Z,97369.41
2023-09-06T21:58:11.875Z,97368.69
2023-09-06T22:00:40.061Z,97371.56
2023-09-06T22:03:08.071Z,97374.53
2023-09-06T22:05:35.736Z,97383.19
2023-09-06T22:08:05.235Z,97380.59
2023-09-06T22:10:32.822Z,97375.53
2023-09-06T22:13:00.596Z,97384.91
2023-09-06T22:15:28.421Z,97386.25
2023-09-06T22:17:56.061Z,97386.53
2023-09-06T22:20:24.379Z,97389.09
2023-09-06T22:22:52.017Z,97390.19
2023-09-06T22:25:20.997Z,97392.94
2023-09-06T22:27:51.167Z,97394.88
2023-09-06T22:30:18.996Z,97395.00
2023-09-06T22:32:46.643Z,97395.44
2023-09-06T22:35:14.251Z,97400.41
2023-09-06T22:37:43.480Z,97392.25
2023-09-06T22:40:12.134Z,97399.91
2023-09-06T22:42:41.212Z,97396.63
2023-09-06T22:45:10.429Z,97398.09
2023-09-06T22:47:38.057Z,97400.53
2023-09-06T22:50:06.553Z,97404.69
2023-09-06T22:52:34.241Z,97400.81
2023-09-06T22:55:02.909Z,97397.56
2023-09-06T22:57:30.553Z,97404.09
2023-09-06T22:59:59.454Z,97410.91
2023-09-06T23:02:27.093Z,97406.59
2023-09-06T23:04:55.952Z,97405.41
2023-09-06T23:07:23.844Z,97408.50
2023-09-06T23:09:51.644Z,97404.41
2023-09-06T23:12:19.901Z,97406.88
2023-09-06T23:14:48.428Z,97413.53
2023-09-06T23:17:22.908Z,97411.06
2023-09-06T23:19:54.144Z,97405.13
2023-09-06T23:22:24.222Z,97408.66
2023-09-06T23:24:57.320Z,97408.22
2023-09-06T23:27:26.974Z,97402.91
2023-09-06T23:29:58.997Z,97403.13
2023-09-06T23:32:31.963Z,97402.91
2023-09-06T23:34:59.750Z,97394.94
2023-09-06T23:37:29.335Z,97401.94
2023-09-06T23:40:01.690Z,97403.81
2023-09-06T23:42:29.696Z,97395.44
2023-09-06T23:44:57.935Z,97400.34
2023-09-06T23:47:27.164Z,97395.84
2023-09-06T23:49:56.102Z,97392.81
2023-09-06T23:52:24.014Z,97382.13
2023-09-06T23:54:51.794Z,97390.56
2023-09-06T23:57:19.463Z,97393.25
2023-09-06T23:59:48.078Z,97388.72
